Disclaimer

Please do not use the information listed here in-flight or in-navigation, as they are not provided to us by the airports but are provided by volunteers, so they might be outdated.

Search


Regions


Airport information page

Radio informations:
Tower (TWR) - 133.35 MHz
Ground (GND) - 130.3 MHz
ISLAND RDR - 131.5 MHz
Approach (APP) - 118.5 MHz

Airport informations:
Latitude: 51° 49' 22.00" S
Longitude: 058° 26' 50.00" W
Elevation: 244 feet - 74 meters
Operating hours: N/A
Operating agency: Military-civil joint use airport
Timezone: UTC-4(-3DT)
Fuel: Jet A1+, Jet A1 with icing inhibitor.

Runway information:
05/23 - 5003 x 75 feet< - >1525 x 23 meters
10/28 - 8497 x 150 feet< - >2590 x 46 meters

Recent METARs:
EGYP 201350Z 26027KT 9999 SCT039 12/01 Q0988 BLU TEMPO 26030G40 BLU
EGYP 201350Z 26027KT 9999 SCT039 12/01 Q0988 BLU TEMPO 26030G40 BLU
EGYP 201450Z 27027KT 9999 FEW042 11/00 Q0988 BLU TEMPO 27030G40KT BLU

Airport on the map: